.
WxDataArchive / Data Records for 2006-02-16
2006-02-15 February 2006 2006-02-17

Data Records for Thursday, 16 February 2006

Time	Temp	Chill	HIndex	Humid	Dewpt	 Wind 	HiWind	WindDir	Rain 	Barom 
-----	----	-----	------	-----	-----	------	------	-------	-----	----- 
00:00	41.3	38.8	41.3	90	38.6	4	9	112	0.00	29.912 
00:05	41.5	39.1	41.5	90	38.8	4	7	112	0.00	29.912 
00:10	41.6	39.2	41.6	90	38.9	4	7	112	0.00	29.912 
00:15	41.6	41.6	41.6	90	38.9	3	5	112	0.00	29.902 
00:20	41.8	39.4	41.8	90	39.1	4	6	112	0.00	29.902 
00:25	41.8	41.8	41.8	90	39.1	3	6	112	0.00	29.902 
00:30	41.9	41.9	41.9	90	39.2	3	6	112	0.00	29.892 
00:35	42.2	42.2	42.2	90	39.5	2	4	112	0.00	29.892 
00:40	42.3	42.3	42.3	90	39.6	2	4	90	0.00	29.892 
00:45	42.5	42.5	42.5	90	39.8	2	4	90	0.00	29.884 
00:50	42.5	42.5	42.5	90	39.8	1	3	90	0.00	29.884 
00:55	42.6	42.6	42.6	90	39.9	2	3	112	0.00	29.884 
01:00	42.6	42.6	42.6	90	39.9	1	3	90	0.00	29.890 
01:05	42.6	42.6	42.6	91	40.2	0	1	90	0.00	29.890 
01:10	42.6	42.6	42.6	91	40.2	0	1	90	0.00	29.890 
01:15	42.6	42.6	42.6	91	40.2	0	0	---	0.00	29.896 
01:20	42.6	42.6	42.6	91	40.2	0	0	---	0.01	29.896 
01:25	42.6	42.6	42.6	91	40.2	0	1	90	0.01	29.896 
01:30	42.6	42.6	42.6	92	40.4	0	2	90	0.00	29.895 
01:35	42.6	42.6	42.6	92	40.4	1	3	90	0.00	29.895 
01:40	42.6	42.6	42.6	92	40.4	1	2	112	0.00	29.895 
01:45	42.6	42.6	42.6	92	40.4	1	3	112	0.00	29.894 
01:50	42.6	42.6	42.6	92	40.4	0	2	90	0.00	29.894 
01:55	42.6	42.6	42.6	92	40.4	0	1	90	0.00	29.894 
02:00	42.6	42.6	42.6	92	40.4	1	2	338	0.01	29.913 
02:05	42.6	42.6	42.6	93	40.7	1	2	22	0.00	29.913 
02:10	42.6	42.6	42.6	93	40.7	0	1	22	0.00	29.913 
02:15	42.6	42.6	42.6	93	40.7	0	2	22	0.00	29.917 
02:20	42.6	42.6	42.6	93	40.7	0	2	22	0.00	29.917 
02:25	42.5	42.5	42.5	93	40.6	1	2	22	0.00	29.917 
02:30	42.5	42.5	42.5	93	40.6	0	2	22	0.00	29.914 
02:35	42.5	42.5	42.5	93	40.6	0	1	22	0.01	29.914 
02:40	42.3	42.3	42.3	93	40.4	0	1	22	0.00	29.914 
02:45	42.3	42.3	42.3	93	40.4	0	1	22	0.00	29.925 
02:50	42.3	42.3	42.3	93	40.4	1	3	22	0.00	29.925 
02:55	42.2	42.2	42.2	93	40.3	1	3	90	0.00	29.925 
03:00	42.1	42.1	42.1	93	40.2	1	3	90	0.00	29.924 
03:05	41.9	41.9	41.9	93	40.0	1	2	90	0.00	29.924 
03:10	41.9	41.9	41.9	93	40.0	1	3	90	0.00	29.924 
03:15	41.9	41.9	41.9	93	40.0	1	2	90	0.00	29.917 
03:20	41.8	41.8	41.8	93	39.9	1	2	90	0.01	29.917 
03:25	41.8	41.8	41.8	93	39.9	0	2	90	0.00	29.917 
03:30	41.6	41.6	41.6	93	39.7	0	1	90	0.00	29.923 
03:35	41.6	41.6	41.6	93	39.7	0	1	90	0.01	29.923 
03:40	41.5	41.5	41.5	93	39.6	1	4	90	0.01	29.923 
03:45	41.5	41.5	41.5	93	39.6	1	4	68	0.02	29.917 
03:50	41.5	41.5	41.5	94	39.9	3	4	112	0.01	29.917 
03:55	41.6	41.6	41.6	94	40.0	2	4	112	0.02	29.917 
04:00	41.6	41.6	41.6	94	40.0	2	3	90	0.01	29.905 
04:05	41.6	41.6	41.6	94	40.0	2	4	90	0.01	29.905 
04:10	41.6	41.6	41.6	94	40.0	0	1	68	0.01	29.905 
04:15	41.6	41.6	41.6	94	40.0	1	3	68	0.00	29.905 
04:20	41.6	41.6	41.6	94	40.0	1	3	90	0.00	29.905 
04:25	41.5	41.5	41.5	94	39.9	1	2	90	0.00	29.905 
04:30	41.3	41.3	41.3	94	39.7	1	3	90	0.00	29.898 
04:35	41.3	41.3	41.3	94	39.7	1	3	90	0.00	29.898 
04:40	41.2	41.2	41.2	94	39.6	1	2	90	0.00	29.898 
04:45	41.2	41.2	41.2	94	39.6	1	2	90	0.01	29.911 
04:50	41.2	41.2	41.2	94	39.6	1	2	90	0.00	29.911 
04:55	41.2	41.2	41.2	94	39.6	1	3	90	0.00	29.911 
05:00	41.2	41.2	41.2	94	39.6	1	3	90	0.00	29.911 
05:05	41.2	41.2	41.2	94	39.6	1	3	90	0.00	29.911 
05:10	41.1	41.1	41.1	95	39.8	1	2	90	0.00	29.911 
05:15	41.1	41.1	41.1	95	39.8	0	2	90	0.00	29.912 
05:20	41.1	41.1	41.1	95	39.8	0	2	90	0.00	29.912 
05:25	41.1	41.1	41.1	95	39.8	0	1	90	0.04	29.912 
05:30	41.1	41.1	41.1	95	39.8	1	3	90	0.00	29.911 
05:35	41.2	41.2	41.2	95	39.9	1	2	90	0.00	29.911 
05:40	41.2	41.2	41.2	95	39.9	0	2	90	0.00	29.911 
05:45	41.2	41.2	41.2	95	39.9	0	1	90	0.00	29.914 
05:50	41.3	41.3	41.3	95	40.0	0	2	90	0.00	29.914 
05:55	41.3	41.3	41.3	95	40.0	0	1	90	0.01	29.914 
06:00	41.3	41.3	41.3	95	40.0	0	2	90	0.01	29.914 
06:05	41.3	41.3	41.3	95	40.0	1	2	90	0.01	29.914 
06:10	41.3	41.3	41.3	95	40.0	0	2	90	0.01	29.914 
06:15	41.5	41.5	41.5	95	40.2	1	3	90	0.02	29.911 
06:20	41.5	41.5	41.5	95	40.2	1	2	90	0.01	29.911 
06:25	41.5	41.5	41.5	95	40.2	0	0	---	0.00	29.911 
06:30	41.8	41.8	41.8	95	40.5	1	3	90	0.01	29.915 
06:35	41.9	41.9	41.9	95	40.6	1	1	90	0.00	29.915 
06:40	42.1	42.1	42.1	95	40.8	0	2	90	0.00	29.915 
06:45	42.5	42.5	42.5	95	41.2	1	2	90	0.00	29.911 
06:50	42.9	42.9	42.9	95	41.6	0	1	90	0.00	29.911 
06:55	43.1	43.1	43.1	95	41.8	0	1	90	0.00	29.911 
07:00	43.2	43.2	43.2	95	41.9	0	0	---	0.00	29.911 
07:05	43.2	43.2	43.2	95	41.9	0	0	---	0.00	29.911 
07:10	43.3	43.3	43.3	95	42.0	0	1	90	0.00	29.911 
07:15	43.5	43.5	43.5	95	42.2	0	1	90	0.00	29.907 
07:20	43.3	43.3	43.3	95	42.0	0	0	---	0.00	29.907 
07:25	43.3	43.3	43.3	95	42.0	0	1	90	0.00	29.907 
07:30	43.5	43.5	43.5	95	42.2	0	2	90	0.00	29.902 
07:35	43.8	43.8	43.8	96	42.7	0	1	90	0.00	29.902 
07:40	43.9	43.9	43.9	96	42.8	0	0	---	0.00	29.902 
07:45	44.1	44.1	44.1	96	43.0	0	1	90	0.00	29.901 
07:50	44.2	44.2	44.2	96	43.1	0	1	90	0.00	29.901 
07:55	44.5	44.5	44.5	96	43.4	0	1	90	0.00	29.901 
08:00	44.6	44.6	44.6	96	43.5	0	1	90	0.00	29.895 
08:05	44.9	44.9	44.9	96	43.8	0	1	90	0.00	29.895 
08:10	45.4	45.4	45.4	96	44.3	1	2	90	0.00	29.895 
08:15	45.7	45.7	45.7	96	44.6	0	2	90	0.00	29.893 
08:20	45.8	45.8	45.8	96	44.7	0	2	90	0.00	29.893 
08:25	46.1	46.1	46.1	96	45.0	0	2	90	0.00	29.893 
08:30	46.7	46.7	46.7	96	45.6	1	2	90	0.00	29.895 
08:35	47.3	47.3	47.3	96	46.2	0	2	112	0.00	29.895 
08:40	47.7	47.7	47.7	96	46.6	1	3	90	0.00	29.895 
08:45	48.2	48.2	48.2	96	47.1	1	3	90	0.00	29.892 
08:50	48.5	48.5	48.5	96	47.4	1	4	90	0.00	29.892 
08:55	48.8	48.8	48.8	96	47.7	1	4	90	0.00	29.892 
09:00	49.1	49.1	49.1	96	48.0	1	2	248	0.00	29.891 
09:05	49.2	49.2	49.2	96	48.1	1	2	225	0.00	29.891 
09:10	49.2	49.2	49.2	96	48.1	1	3	90	0.00	29.891 
09:15	49.4	49.4	49.4	96	48.3	1	3	90	0.00	29.890 
09:20	49.5	49.5	49.5	95	48.1	2	4	112	0.01	29.890 
09:25	49.6	49.6	49.6	95	48.2	2	4	90	0.01	29.890 
09:30	49.6	49.6	49.6	93	47.7	3	5	90	0.00	29.878 
09:35	49.9	49.9	49.9	93	48.0	3	5	90	0.00	29.878 
09:40	50.1	50.1	50.1	93	48.2	2	5	90	0.00	29.878 
09:45	50.1	50.1	50.1	92	47.9	2	4	112	0.00	29.873 
09:50	50.1	50.1	50.1	92	47.9	1	3	90	0.00	29.873 
09:55	50.1	50.1	50.1	92	47.9	2	4	90	0.00	29.873 
10:00	50.2	50.2	50.2	92	48.0	2	5	90	0.03	29.860 
10:05	50.2	50.2	50.2	92	48.0	2	4	90	0.01	29.860 
10:10	50.4	50.4	50.4	92	48.2	3	5	112	0.00	29.860 
10:15	50.5	50.5	50.5	91	48.0	2	4	90	0.00	29.853 
10:20	50.8	50.8	50.8	91	48.3	2	4	112	0.00	29.853 
10:25	51.1	51.1	51.1	90	48.3	2	5	112	0.00	29.853 
10:30	51.6	51.6	51.6	89	48.5	3	10	90	0.00	29.844 
10:35	51.9	51.9	51.9	87	48.2	3	7	90	0.00	29.844 
10:40	52.2	52.2	52.2	87	48.4	3	7	90	0.00	29.844 
10:45	52.5	52.5	52.5	86	48.4	3	7	90	0.00	29.839 
10:50	52.6	52.6	52.6	85	48.2	2	6	90	0.00	29.839 
10:55	52.9	52.9	52.9	85	48.5	3	7	90	0.00	29.839 
11:00	53.1	53.1	53.1	85	48.7	3	6	112	0.00	29.825 
11:05	53.2	53.2	53.2	84	48.5	3	5	90	0.00	29.825 
11:10	53.5	53.5	53.5	84	48.8	3	7	90	0.00	29.825 
11:15	53.8	53.8	53.8	83	48.8	3	6	112	0.00	29.813 
11:20	53.9	53.9	53.9	83	48.9	3	6	90	0.00	29.813 
11:25	53.9	53.9	53.9	84	49.2	2	5	90	0.00	29.813 
11:30	54.2	54.2	54.2	84	49.5	2	5	90	0.00	29.809 
11:35	54.5	54.5	54.5	83	49.4	2	6	112	0.00	29.809 
11:40	54.8	54.8	54.8	82	49.4	3	7	90	0.00	29.809 
11:45	55.0	55.0	55.0	82	49.6	3	6	90	0.00	29.798 
11:50	55.3	55.3	55.3	82	49.9	3	8	90	0.00	29.798 
11:55	55.4	55.4	55.4	82	50.0	2	5	90	0.00	29.798 
12:00	55.6	55.6	55.6	82	50.2	2	9	68	0.00	29.791 
12:05	55.9	55.9	55.9	82	50.5	3	7	45	0.00	29.791 
12:10	56.0	56.0	56.0	82	50.6	3	13	270	0.00	29.791 
12:15	56.2	56.2	56.2	82	50.8	3	10	90	0.00	29.782 
12:20	56.5	56.5	56.5	82	51.1	3	9	68	0.00	29.782 
12:25	56.6	56.6	56.6	81	50.8	3	7	270	0.00	29.782 
12:30	56.9	56.9	56.9	81	51.1	4	14	90	0.00	29.771 
12:35	57.2	57.2	57.2	80	51.1	5	18	68	0.00	29.771 
12:40	57.5	57.5	57.5	81	51.7	4	12	90	0.00	29.771 
12:45	57.6	57.6	57.6	80	51.5	4	14	68	0.00	29.761 
12:50	57.8	57.8	57.8	79	51.3	5	15	270	0.00	29.761 
12:55	57.8	57.8	57.8	79	51.3	4	11	112	0.00	29.761 
13:00	57.8	57.8	57.8	80	51.7	4	10	248	0.00	29.750 
13:05	57.8	57.8	57.8	80	51.7	3	10	270	0.00	29.750 
13:10	58.1	58.1	58.1	80	52.0	4	11	270	0.00	29.750 
13:15	58.4	58.4	58.4	79	51.9	4	11	180	0.00	29.752 
13:20	58.3	58.3	58.3	79	51.8	4	11	248	0.00	29.752 
13:25	58.3	58.3	58.3	79	51.8	4	12	248	0.00	29.752 
13:30	58.4	58.4	58.4	79	51.9	4	13	270	0.00	29.743 
13:35	58.9	58.9	58.9	78	52.0	5	12	270	0.00	29.743 
13:40	59.0	59.0	59.0	77	51.8	4	16	270	0.00	29.743 
13:45	58.9	58.9	58.9	77	51.7	5	14	270	0.00	29.739 
13:50	58.7	58.7	58.7	77	51.5	5	10	202	0.00	29.739 
13:55	58.6	58.6	58.6	78	51.8	4	13	270	0.00	29.739 
14:00	58.4	58.4	58.4	78	51.6	4	12	248	0.00	29.738 
14:05	58.4	58.4	58.4	78	51.6	4	15	248	0.00	29.738 
14:10	58.3	58.3	58.3	79	51.8	4	14	270	0.00	29.738 
14:15	58.3	58.3	58.3	79	51.8	4	10	68	0.00	29.727 
14:20	58.3	58.3	58.3	78	51.5	4	13	248	0.00	29.727 
14:25	58.1	58.1	58.1	79	51.6	4	11	270	0.00	29.727 
14:30	58.1	58.1	58.1	79	51.6	4	11	248	0.00	29.725 
14:35	58.1	58.1	58.1	79	51.6	4	17	292	0.00	29.725 
14:40	58.0	58.0	58.0	80	51.9	5	12	248	0.00	29.725 
14:45	58.0	58.0	58.0	80	51.9	5	10	90	0.00	29.717 
14:50	58.0	58.0	58.0	80	51.9	5	12	112	0.00	29.717 
14:55	58.0	58.0	58.0	80	51.9	4	10	270	0.00	29.717 
15:00	57.8	57.8	57.8	80	51.7	5	15	248	0.00	29.718 
15:05	57.8	57.8	57.8	81	52.0	5	12	270	0.00	29.718 
15:10	57.6	57.6	57.6	81	51.8	5	12	270	0.00	29.718 
15:15	57.5	57.5	57.5	82	52.0	4	15	270	0.00	29.711 
15:20	57.5	57.5	57.5	82	52.0	4	11	248	0.00	29.711 
15:25	57.3	57.3	57.3	82	51.9	4	9	90	0.00	29.711 
15:30	57.3	57.3	57.3	82	51.9	4	13	270	0.00	29.704 
15:35	57.3	57.3	57.3	83	52.2	3	10	270	0.00	29.704 
15:40	57.3	57.3	57.3	83	52.2	5	16	270	0.00	29.704 
15:45	57.3	57.3	57.3	83	52.2	4	11	270	0.00	29.698 
15:50	57.5	57.5	57.5	83	52.4	5	13	270	0.00	29.698 
15:55	57.3	57.3	57.3	83	52.2	5	16	292	0.00	29.698 
16:00	57.3	57.3	57.3	83	52.2	4	12	270	0.00	29.696 
16:05	57.2	57.2	57.2	84	52.4	4	10	68	0.00	29.696 
16:10	57.2	57.2	57.2	84	52.4	5	21	292	0.00	29.696 
16:15	57.2	57.2	57.2	84	52.4	4	12	248	0.00	29.690 
16:20	57.2	57.2	57.2	84	52.4	5	14	248	0.00	29.690 
16:25	57.2	57.2	57.2	84	52.4	4	13	270	0.00	29.690 
16:30	57.2	57.2	57.2	84	52.4	4	18	270	0.00	29.683 
16:35	57.3	57.3	57.3	84	52.5	4	13	90	0.00	29.683 
16:40	57.3	57.3	57.3	84	52.5	4	10	248	0.00	29.683 
16:45	57.3	57.3	57.3	84	52.5	4	14	270	0.00	29.678 
16:50	57.3	57.3	57.3	84	52.5	3	9	270	0.00	29.678 
16:55	57.3	57.3	57.3	84	52.5	3	10	248	0.00	29.678 
17:00	57.5	57.5	57.5	84	52.7	5	11	90	0.00	29.664 
17:05	57.5	57.5	57.5	84	52.7	3	15	248	0.00	29.664 
17:10	57.5	57.5	57.5	84	52.7	4	14	270	0.00	29.664 
17:15	57.6	57.6	57.6	84	52.8	4	11	292	0.00	29.652 
17:20	57.8	57.8	57.8	84	53.0	5	11	68	0.00	29.652 
17:25	57.8	57.8	57.8	84	53.0	5	13	68	0.00	29.652 
17:30	57.6	57.6	57.6	85	53.1	5	14	270	0.00	29.648 
17:35	57.6	57.6	57.6	85	53.1	4	12	248	0.00	29.648 
17:40	57.5	57.5	57.5	86	53.3	5	11	248	0.00	29.648 
17:45	57.2	57.2	57.2	87	53.4	4	11	45	0.00	29.642 
17:50	57.0	57.0	57.0	88	53.5	3	9	68	0.00	29.642 
17:55	57.0	57.0	57.0	87	53.2	4	10	270	0.00	29.642 
18:00	57.2	57.2	57.2	87	53.4	4	12	90	0.00	29.633 
18:05	57.3	57.3	57.3	86	53.1	5	10	248	0.00	29.633 
18:10	57.5	57.5	57.5	86	53.3	5	16	248	0.00	29.633 
18:15	57.3	57.3	57.3	86	53.1	5	13	248	0.00	29.624 
18:20	57.5	57.5	57.5	85	53.0	6	14	270	0.00	29.624 
18:25	57.6	57.6	57.6	85	53.1	4	16	225	0.00	29.624 
18:30	58.0	58.0	58.0	84	53.2	5	15	270	0.00	29.615 
18:35	58.3	58.3	58.3	83	53.2	5	14	270	0.00	29.615 
18:40	58.4	58.4	58.4	83	53.3	6	15	68	0.00	29.615 
18:45	58.4	58.4	58.4	83	53.3	6	16	270	0.00	29.610 
18:50	58.4	58.4	58.4	82	52.9	5	16	248	0.00	29.610 
18:55	58.3	58.3	58.3	83	53.2	5	17	270	0.00	29.610 
19:00	58.3	58.3	58.3	83	53.2	6	14	270	0.00	29.603 
19:05	58.3	58.3	58.3	83	53.2	5	13	68	0.00	29.603 
19:10	58.3	58.3	58.3	83	53.2	4	10	270	0.00	29.603 
19:15	58.1	58.1	58.1	83	53.0	6	13	248	0.00	29.599 
19:20	58.1	58.1	58.1	83	53.0	4	14	248	0.00	29.599 
19:25	58.3	58.3	58.3	83	53.2	4	9	248	0.00	29.599 
19:30	58.3	58.3	58.3	82	52.8	5	13	248	0.00	29.603 
19:35	58.4	58.4	58.4	82	52.9	5	13	248	0.00	29.603 
19:40	58.6	58.6	58.6	82	53.1	5	13	248	0.00	29.603 
19:45	58.4	58.4	58.4	83	53.3	7	16	270	0.00	29.608 
19:50	58.3	58.3	58.3	83	53.2	5	11	270	0.00	29.608 
19:55	58.1	58.1	58.1	84	53.3	4	12	248	0.01	29.608 
20:00	58.1	58.1	58.1	84	53.3	4	12	270	0.00	29.586 
20:05	58.0	58.0	58.0	84	53.2	5	11	248	0.00	29.586 
20:10	58.0	58.0	58.0	84	53.2	3	10	270	0.00	29.586 
20:15	57.8	57.8	57.8	85	53.3	5	11	270	0.02	29.586 
20:20	57.5	57.5	57.5	87	53.7	4	9	248	0.01	29.586 
20:25	57.2	57.2	57.2	88	53.7	5	10	248	0.02	29.586 
20:30	57.0	57.0	57.0	88	53.5	4	9	248	0.02	29.579 
20:35	57.0	57.0	57.0	89	53.8	6	15	270	0.02	29.579 
20:40	57.0	57.0	57.0	89	53.8	5	13	248	0.02	29.579 
20:45	57.3	57.3	57.3	88	53.8	8	23	248	0.00	29.571 
20:50	57.2	57.2	57.2	89	54.0	5	14	270	0.01	29.571 
20:55	56.9	56.9	56.9	89	53.7	5	14	270	0.00	29.571 
21:00	57.0	57.0	57.0	89	53.8	5	12	248	0.00	29.553 
21:05	57.2	57.2	57.2	89	54.0	6	14	270	0.00	29.553 
21:10	57.0	57.0	57.0	89	53.8	6	14	270	0.00	29.553 
21:15	56.9	56.9	56.9	89	53.7	4	10	248	0.00	29.545 
21:20	57.0	57.0	57.0	89	53.8	6	12	90	0.00	29.545 
21:25	57.0	57.0	57.0	88	53.5	5	12	90	0.00	29.545 
21:30	57.0	57.0	57.0	88	53.5	6	14	45	0.00	29.526 
21:35	57.0	57.0	57.0	89	53.8	5	12	68	0.00	29.526 
21:40	57.2	57.2	57.2	88	53.7	6	21	90	0.01	29.526 
21:45	57.3	57.3	57.3	88	53.8	6	15	270	0.01	29.530 
21:50	57.3	57.3	57.3	88	53.8	6	15	248	0.00	29.530 
21:55	57.3	57.3	57.3	89	54.1	7	18	270	0.00	29.530 
22:00	56.6	56.6	56.6	88	53.1	7	15	270	0.02	29.562 
22:05	55.3	55.3	55.3	89	52.1	6	12	270	0.09	29.562 
22:10	54.4	54.4	54.4	89	51.2	8	14	270	0.04	29.562 
22:15	53.6	53.6	53.6	89	50.4	6	14	270	0.02	29.588 
22:20	53.2	53.2	53.2	90	50.3	6	12	270	0.01	29.588 
22:25	52.8	52.8	52.8	91	50.2	5	12	248	0.01	29.588 
22:30	52.3	52.3	52.3	91	49.8	5	10	248	0.00	29.595 
22:35	52.0	52.0	52.0	91	49.5	4	10	270	0.01	29.595 
22:40	51.7	51.7	51.7	91	49.2	4	11	248	0.00	29.595 
22:45	51.6	51.6	51.6	92	49.4	3	11	248	0.01	29.596 
22:50	51.3	51.3	51.3	92	49.1	4	10	270	0.00	29.596 
22:55	51.1	51.1	51.1	92	48.9	4	10	248	0.00	29.596 
23:00	50.8	50.8	50.8	92	48.6	4	15	270	0.00	29.605 
23:05	49.8	47.4	49.8	89	46.7	6	17	270	0.00	29.605 
23:10	48.5	45.4	48.5	87	44.8	7	15	270	0.00	29.605 
23:15	46.1	42.5	46.1	85	41.8	7	17	270	0.00	29.659 
23:20	43.1	38.9	43.1	85	38.9	7	14	270	0.00	29.659 
23:25	41.3	38.0	41.3	88	38.0	5	12	270	0.00	29.659 
23:30	40.6	36.5	40.6	89	37.6	6	14	270	0.00	29.707 
23:35	40.2	36.7	40.2	90	37.5	5	9	270	0.00	29.707 
23:40	39.8	36.2	39.8	89	36.8	5	9	270	0.00	29.707 
23:45	39.6	36.0	39.6	89	36.6	5	11	270	0.00	29.716 
23:50	39.5	36.7	39.5	89	36.5	4	6	270	0.00	29.716 
23:55	39.3	35.7	39.3	88	36.0	5	12	270	0.00	29.716 

CoCoRaHS
IN-AL-39
A2 Web Hosting
Creative Commons License
GoDaddy
Look for:

loaded 2017-10-19 12:39:06 • last modified 2010-11-18 10:43:29
Privacy PolicyDisclaimer
• wx.awcolley.com is powered by PmWiki v.2002016 •
• all content (unless otherwise noted) © 2017 A W Colley